Time;durP1;ratioP1;P1;durP2;ratioP2;P2;SDS_P1;SDS_P2;PMS_P1;PMS_P2;Temp;Humidity;BMP_temperature;BMP_pressure;BME280_temperature;BME280_humidity;BME280_pressure;Samples;Min_cycle;Max_cycle;Signal;HPM_P1;HPM_P2
2021/05/24 00:00:56;;;;;;;4.60;3.10;;;;;;;;;;2076690;28;20041;-80
2021/05/24 00:01:57;;;;;;;5.10;2.85;;;;;;;;;;2075192;28;20042;-78
2021/05/24 00:02:59;;;;;;;3.38;2.80;;;;;;;;;;2059901;28;20548;-79
2021/05/24 00:04:01;;;;;;;4.78;3.05;;;;;;;;;;2060403;28;20428;-79
2021/05/24 00:05:05;;;;;;;4.50;2.63;;;;;;;;;;2067760;28;20046;-80
2021/05/24 00:06:06;;;;;;;4.93;2.65;;;;;;;;;;2063874;28;20047;-79
2021/05/24 00:07:08;;;;;;;2.63;2.38;;;;;;;;;;2067506;28;20042;-79
2021/05/24 00:08:09;;;;;;;3.72;3.13;;;;;;;;;;2075169;28;20125;-78
2021/05/24 00:09:11;;;;;;;3.53;2.65;;;;;;;;;;2075646;28;20046;-78
2021/05/24 00:10:16;;;;;;;4.57;2.65;;;;;;;;;;2076431;28;20513;-78
2021/05/24 00:11:18;;;;;;;6.57;2.85;;;;;;;;;;2084332;28;20510;-80
2021/05/24 00:12:25;;;;;;;4.78;2.88;;;;;;;;;;2084033;28;20046;-78
2021/05/24 00:13:29;;;;;;;3.80;2.70;;;;;;;;;;2077048;28;20042;-79
2021/05/24 00:14:34;;;;;;;3.67;2.60;;;;;;;;;;2076433;28;20041;-79
2021/05/24 00:15:39;;;;;;;5.03;2.50;;;;;;;;;;2076601;28;20046;-79
2021/05/24 00:16:40;;;;;;;4.63;2.58;;;;;;;;;;2083562;28;20041;-80
2021/05/24 00:17:42;;;;;;;4.07;2.15;;;;;;;;;;2075480;28;20046;-78
2021/05/24 00:18:46;;;;;;;4.90;2.60;;;;;;;;;;2076239;28;20362;-80
2021/05/24 00:19:48;;;;;;;3.53;2.40;;;;;;;;;;2076522;28;20076;-79
2021/05/24 00:20:56;;;;;;;4.68;2.30;;;;;;;;;;2075951;28;20053;-80
2021/05/24 00:21:58;;;;;;;3.78;2.53;;;;;;;;;;2068706;28;20046;-78
2021/05/24 00:22:59;;;;;;;3.05;2.55;;;;;;;;;;2075354;28;20045;-79
2021/05/24 00:24:01;;;;;;;4.32;2.80;;;;;;;;;;2083931;28;20041;-79
2021/05/24 00:25:05;;;;;;;3.65;2.65;;;;;;;;;;2084175;28;20037;-79
2021/05/24 00:26:06;;;;;;;5.95;3.05;;;;;;;;;;2076346;28;20072;-79
2021/05/24 00:27:08;;;;;;;4.88;2.40;;;;;;;;;;2075871;28;20076;-79
2021/05/24 00:28:14;;;;;;;5.15;2.72;;;;;;;;;;2075552;28;20042;-79
2021/05/24 00:29:19;;;;;;;3.38;2.70;;;;;;;;;;2083885;28;20076;-79
2021/05/24 00:30:21;;;;;;;4.15;2.70;;;;;;;;;;2083372;28;20049;-79
2021/05/24 00:31:22;;;;;;;5.93;2.63;;;;;;;;;;2075106;28;20046;-78
2021/05/24 00:32:24;;;;;;;3.45;2.92;;;;;;;;;;2077483;28;20069;-78
2021/05/24 00:33:26;;;;;;;6.45;2.78;;;;;;;;;;2077380;28;20049;-77
2021/05/24 00:34:27;;;;;;;5.07;2.97;;;;;;;;;;2077390;28;20053;-76
2021/05/24 00:35:30;;;;;;;3.72;2.80;;;;;;;;;;2076710;28;20042;-77
2021/05/24 00:36:32;;;;;;;4.00;2.50;;;;;;;;;;2077115;28;20061;-79
2021/05/24 00:37:33;;;;;;;3.88;2.67;;;;;;;;;;2076454;28;20042;-77
2021/05/24 00:38:36;;;;;;;4.30;2.80;;;;;;;;;;2075260;28;20042;-80
2021/05/24 00:39:37;;;;;;;4.00;2.65;;;;;;;;;;2076653;28;20046;-79
2021/05/24 00:40:39;;;;;;;5.43;2.50;;;;;;;;;;2084033;28;20049;-80
2021/05/24 00:41:42;;;;;;;4.28;2.72;;;;;;;;;;2084439;28;20045;-79
2021/05/24 00:42:43;;;;;;;4.32;2.40;;;;;;;;;;2083707;28;20040;-80
2021/05/24 00:43:45;;;;;;;3.33;2.65;;;;;;;;;;2084375;28;20049;-78
2021/05/24 00:44:46;;;;;;;7.47;2.80;;;;;;;;;;2084175;28;20041;-79
2021/05/24 00:45:48;;;;;;;3.05;2.22;;;;;;;;;;2080398;28;20053;-78
2021/05/24 00:46:50;;;;;;;3.13;2.30;;;;;;;;;;2067185;28;20049;-79
2021/05/24 00:47:52;;;;;;;3.28;2.50;;;;;;;;;;2060283;28;20043;-79
2021/05/24 00:48:53;;;;;;;4.45;2.60;;;;;;;;;;2067804;28;20047;-78
2021/05/24 00:49:55;;;;;;;3.60;2.70;;;;;;;;;;2068592;28;20042;-78
2021/05/24 00:50:57;;;;;;;3.40;2.60;;;;;;;;;;2068380;28;20061;-78
2021/05/24 00:51:59;;;;;;;3.90;2.90;;;;;;;;;;2068200;28;20046;-78
2021/05/24 00:53:00;;;;;;;4.78;2.90;;;;;;;;;;2059359;28;20127;-78
2021/05/24 00:54:03;;;;;;;4.82;3.05;;;;;;;;;;2060723;28;20058;-79
2021/05/24 00:55:07;;;;;;;4.95;2.65;;;;;;;;;;2068301;28;20057;-78
2021/05/24 00:56:08;;;;;;;3.20;2.40;;;;;;;;;;2068969;28;20050;-77
2021/05/24 00:57:10;;;;;;;4.45;2.70;;;;;;;;;;2069129;28;20050;-78
2021/05/24 00:58:12;;;;;;;3.88;2.75;;;;;;;;;;2068975;28;20038;-78
2021/05/24 00:59:15;;;;;;;5.80;4.05;;;;;;;;;;2061276;28;20054;-79
2021/05/24 01:00:36;;;;;;;5.63;3.80;;;;;;;;;;2069182;28;20050;-78
2021/05/24 01:01:37;;;;;;;4.90;3.90;;;;;;;;;;2069717;28;20065;-80
2021/05/24 01:02:39;;;;;;;6.75;4.57;;;;;;;;;;2078274;28;20041;-78
2021/05/24 01:03:41;;;;;;;8.75;5.60;;;;;;;;;;2077787;28;20532;-79
2021/05/24 01:04:42;;;;;;;6.65;5.40;;;;;;;;;;2085526;28;20046;-78
2021/05/24 01:05:45;;;;;;;5.45;4.78;;;;;;;;;;2084051;28;20072;-78
2021/05/24 01:06:48;;;;;;;9.93;5.82;;;;;;;;;;2078406;28;20049;-79
2021/05/24 01:07:50;;;;;;;9.63;6.70;;;;;;;;;;2079154;28;20045;-80
2021/05/24 01:08:51;;;;;;;7.03;4.90;;;;;;;;;;2077934;28;20145;-79
2021/05/24 01:09:53;;;;;;;7.20;4.75;;;;;;;;;;2084563;28;20402;-79
2021/05/24 01:10:55;;;;;;;6.95;5.45;;;;;;;;;;2077748;28;20050;-80
2021/05/24 01:11:56;;;;;;;6.03;5.43;;;;;;;;;;2061304;28;20050;-78
2021/05/24 01:12:59;;;;;;;7.60;5.32;;;;;;;;;;2077575;28;20042;-80
2021/05/24 01:14:02;;;;;;;8.18;4.72;;;;;;;;;;2078545;28;20049;-79
2021/05/24 01:15:05;;;;;;;5.13;3.95;;;;;;;;;;2077701;28;20049;-78
2021/05/24 01:16:06;;;;;;;5.15;3.60;;;;;;;;;;2077562;28;20049;-79
2021/05/24 01:17:08;;;;;;;7.05;3.65;;;;;;;;;;2073301;28;20042;-78
2021/05/24 01:18:10;;;;;;;4.95;3.65;;;;;;;;;;2069200;28;20510;-79
2021/05/24 01:19:12;;;;;;;4.63;3.53;;;;;;;;;;2069710;28;20042;-78
2021/05/24 01:20:13;;;;;;;6.35;3.70;;;;;;;;;;2060973;28;20039;-78
2021/05/24 01:21:17;;;;;;;5.00;3.25;;;;;;;;;;2062068;28;20527;-79
2021/05/24 01:22:20;;;;;;;3.25;2.95;;;;;;;;;;2068708;28;20189;-78
2021/05/24 01:23:27;;;;;;;6.05;3.30;;;;;;;;;;2061713;28;20058;-78
2021/05/24 01:24:28;;;;;;;3.95;3.00;;;;;;;;;;2061142;28;20057;-79
2021/05/24 01:25:37;;;;;;;5.18;3.10;;;;;;;;;;2070456;28;20046;-79
2021/05/24 01:26:40;;;;;;;4.57;2.63;;;;;;;;;;2077150;28;20046;-80
2021/05/24 01:27:42;;;;;;;6.30;2.90;;;;;;;;;;2077095;28;20042;-79
2021/05/24 01:28:44;;;;;;;6.88;2.65;;;;;;;;;;2069333;28;20073;-80
2021/05/24 01:29:46;;;;;;;5.22;2.90;;;;;;;;;;2059795;28;20050;-80
2021/05/24 01:30:48;;;;;;;5.22;3.05;;;;;;;;;;2052879;28;20039;-79
2021/05/24 01:31:50;;;;;;;4.25;2.85;;;;;;;;;;2061161;28;20042;-78
2021/05/24 01:32:51;;;;;;;3.90;2.50;;;;;;;;;;2073330;28;20046;-79
2021/05/24 01:33:57;;;;;;;4.05;2.80;;;;;;;;;;2077247;28;20046;-79
2021/05/24 01:34:58;;;;;;;4.10;2.80;;;;;;;;;;2077899;28;20049;-78
2021/05/24 01:36:02;;;;;;;4.85;3.13;;;;;;;;;;2085929;28;20052;-78
2021/05/24 01:37:04;;;;;;;4.22;2.58;;;;;;;;;;2070318;28;20047;-79
2021/05/24 01:38:09;;;;;;;3.42;2.47;;;;;;;;;;2065951;28;20050;-78
2021/05/24 01:39:11;;;;;;;2.90;2.42;;;;;;;;;;2070161;28;20042;-78
2021/05/24 01:40:14;;;;;;;4.53;2.60;;;;;;;;;;2076929;28;20731;-78
2021/05/24 01:41:16;;;;;;;4.07;2.83;;;;;;;;;;2069707;28;20045;-79
2021/05/24 01:42:17;;;;;;;3.60;2.55;;;;;;;;;;2060552;28;20050;-79
2021/05/24 01:43:20;;;;;;;5.25;3.05;;;;;;;;;;2061389;28;20046;-78
2021/05/24 01:44:36;;;;;;;2.92;2.50;;;;;;;;;;2069409;28;20503;-78
2021/05/24 01:45:38;;;;;;;3.88;2.60;;;;;;;;;;2069650;28;20054;-78
2021/05/24 01:46:40;;;;;;;2.95;2.40;;;;;;;;;;2069019;28;20054;-79
2021/05/24 01:47:43;;;;;;;4.75;3.00;;;;;;;;;;2077133;28;20042;-78
2021/05/24 01:48:45;;;;;;;3.90;2.78;;;;;;;;;;2078207;28;20048;-79
2021/05/24 01:49:47;;;;;;;2.97;2.33;;;;;;;;;;2078036;28;20034;-79
2021/05/24 01:50:49;;;;;;;3.05;2.20;;;;;;;;;;2078381;28;20039;-80
2021/05/24 01:51:52;;;;;;;3.58;2.40;;;;;;;;;;2077376;28;20050;-80
2021/05/24 01:52:54;;;;;;;3.05;2.28;;;;;;;;;;2076441;28;20041;-79
2021/05/24 01:53:55;;;;;;;2.78;2.40;;;;;;;;;;2085475;28;20443;-79
2021/05/24 01:54:57;;;;;;;4.28;2.25;;;;;;;;;;2072548;28;20046;-79
2021/05/24 01:55:59;;;;;;;1.85;1.73;;;;;;;;;;2070345;28;20042;-80
2021/05/24 01:57:00;;;;;;;3.15;2.30;;;;;;;;;;2070358;28;20061;-78
2021/05/24 01:58:04;;;;;;;2.42;2.10;;;;;;;;;;2069052;28;20046;-78
2021/05/24 01:59:06;;;;;;;4.43;2.75;;;;;;;;;;2069367;28;20050;-79
2021/05/24 02:00:13;;;;;;;6.22;2.75;;;;;;;;;;2068934;28;20046;-79
2021/05/24 02:01:15;;;;;;;3.38;2.72;;;;;;;;;;2069151;28;20038;-78
2021/05/24 02:02:16;;;;;;;5.72;2.67;;;;;;;;;;2076445;28;20038;-78
2021/05/24 02:03:18;;;;;;;4.90;2.85;;;;;;;;;;2078375;28;20061;-78
2021/05/24 02:04:20;;;;;;;2.63;2.40;;;;;;;;;;2069771;28;20046;-78
2021/05/24 02:05:23;;;;;;;3.30;2.63;;;;;;;;;;2078221;28;20050;-79
2021/05/24 02:06:24;;;;;;;5.30;2.40;;;;;;;;;;2071631;28;20058;-78
2021/05/24 02:07:30;;;;;;;4.25;2.70;;;;;;;;;;2069688;28;20558;-78
2021/05/24 02:08:33;;;;;;;2.30;1.88;;;;;;;;;;2077773;28;20053;-79
2021/05/24 02:09:35;;;;;;;4.40;2.55;;;;;;;;;;2076867;28;20042;-77
2021/05/24 02:10:38;;;;;;;4.63;2.55;;;;;;;;;;2077417;28;20358;-78
2021/05/24 02:11:41;;;;;;;4.20;2.28;;;;;;;;;;2074705;28;20065;-79
2021/05/24 02:12:44;;;;;;;4.75;2.25;;;;;;;;;;2069668;28;20042;-79
2021/05/24 02:13:46;;;;;;;3.75;2.45;;;;;;;;;;2070990;28;20050;-79
2021/05/24 02:14:52;;;;;;;2.63;2.10;;;;;;;;;;2071075;28;20042;-79
2021/05/24 02:15:55;;;;;;;3.92;2.28;;;;;;;;;;2071347;28;20121;-80
2021/05/24 02:16:56;;;;;;;5.28;2.60;;;;;;;;;;2070205;28;20042;-79
2021/05/24 02:17:58;;;;;;;2.67;2.28;;;;;;;;;;2069697;28;20053;-79
2021/05/24 02:19:00;;;;;;;3.58;2.30;;;;;;;;;;2070120;28;20165;-79
2021/05/24 02:20:04;;;;;;;2.60;2.40;;;;;;;;;;2077247;28;20053;-79
2021/05/24 02:21:07;;;;;;;3.35;2.20;;;;;;;;;;2078564;28;20045;-80
2021/05/24 02:22:09;;;;;;;3.10;2.20;;;;;;;;;;2078219;28;20042;-79
2021/05/24 02:23:11;;;;;;;2.92;1.95;;;;;;;;;;2077261;28;20126;-80
2021/05/24 02:24:13;;;;;;;3.80;2.70;;;;;;;;;;2077956;28;20045;-80
2021/05/24 02:25:15;;;;;;;3.78;2.35;;;;;;;;;;2078566;28;20046;-79
2021/05/24 02:26:17;;;;;;;2.58;2.38;;;;;;;;;;2077426;28;20048;-79
2021/05/24 02:27:19;;;;;;;5.18;2.20;;;;;;;;;;2069914;28;20050;-79
2021/05/24 02:28:20;;;;;;;3.13;2.65;;;;;;;;;;2077890;28;20053;-79
2021/05/24 02:29:22;;;;;;;3.65;2.58;;;;;;;;;;2085529;28;20063;-78
2021/05/24 02:30:25;;;;;;;3.45;2.28;;;;;;;;;;2085300;28;20045;-79
2021/05/24 02:31:27;;;;;;;2.72;2.28;;;;;;;;;;2069600;28;20094;-79
2021/05/24 02:32:28;;;;;;;2.72;2.53;;;;;;;;;;2068572;28;20042;-80
2021/05/24 02:33:30;;;;;;;5.10;2.65;;;;;;;;;;2069216;28;20054;-79
2021/05/24 02:34:31;;;;;;;2.50;2.30;;;;;;;;;;2061334;28;20034;-79
2021/05/24 02:35:33;;;;;;;2.38;2.17;;;;;;;;;;2069362;28;20061;-78
2021/05/24 02:36:35;;;;;;;2.90;2.60;;;;;;;;;;2077272;28;20037;-77
2021/05/24 02:37:38;;;;;;;3.17;2.22;;;;;;;;;;2077862;28;20064;-78
2021/05/24 02:38:40;;;;;;;5.45;2.50;;;;;;;;;;2085235;28;20041;-79
2021/05/24 02:39:42;;;;;;;2.67;2.47;;;;;;;;;;2077214;28;20391;-80
2021/05/24 02:40:44;;;;;;;3.22;2.17;;;;;;;;;;2069267;28;20050;-79
2021/05/24 02:41:45;;;;;;;4.35;2.10;;;;;;;;;;2061250;28;20057;-79
2021/05/24 02:42:48;;;;;;;2.42;2.20;;;;;;;;;;2070115;28;20057;-79
2021/05/24 02:43:50;;;;;;;2.50;1.95;;;;;;;;;;2069658;28;20050;-79
2021/05/24 02:44:51;;;;;;;3.13;2.00;;;;;;;;;;2069101;28;20046;-79
2021/05/24 02:45:53;;;;;;;2.40;2.00;;;;;;;;;;2072699;28;20052;-78
2021/05/24 02:46:54;;;;;;;2.20;2.00;;;;;;;;;;2069896;28;20038;-80
2021/05/24 02:47:57;;;;;;;3.70;2.30;;;;;;;;;;2071326;28;20046;-79
2021/05/24 02:48:59;;;;;;;3.58;2.47;;;;;;;;;;2070056;28;20069;-79
2021/05/24 02:50:03;;;;;;;2.33;2.13;;;;;;;;;;2070355;28;20046;-78
2021/05/24 02:51:05;;;;;;;4.38;2.28;;;;;;;;;;2073236;28;20045;-79
2021/05/24 02:52:06;;;;;;;3.17;2.20;;;;;;;;;;2077162;28;20054;-79
2021/05/24 02:53:08;;;;;;;3.47;1.90;;;;;;;;;;2066855;28;20050;-78
2021/05/24 02:54:10;;;;;;;2.63;1.98;;;;;;;;;;2066472;28;20070;-79
2021/05/24 02:55:12;;;;;;;5.20;2.10;;;;;;;;;;2076935;28;20042;-79
2021/05/24 02:56:14;;;;;;;3.25;2.10;;;;;;;;;;2059368;28;20039;-79
2021/05/24 02:57:16;;;;;;;3.97;2.20;;;;;;;;;;2071280;28;20050;-78
2021/05/24 02:58:18;;;;;;;3.72;2.00;;;;;;;;;;2070227;28;20050;-79
2021/05/24 02:59:20;;;;;;;2.70;2.15;;;;;;;;;;2077278;28;20060;-79
2021/05/24 03:00:25;;;;;;;4.10;2.05;;;;;;;;;;2068677;28;20160;-79
2021/05/24 03:01:27;;;;;;;2.50;2.30;;;;;;;;;;2077397;28;20077;-78
2021/05/24 03:02:30;;;;;;;3.08;2.10;;;;;;;;;;2078120;28;20044;-80
2021/05/24 03:03:33;;;;;;;2.65;2.10;;;;;;;;;;2085111;28;20057;-79
2021/05/24 03:04:35;;;;;;;5.90;3.00;;;;;;;;;;2084811;28;20041;-80
2021/05/24 03:05:36;;;;;;;4.65;2.55;;;;;;;;;;2076591;28;20053;-79
2021/05/24 03:06:38;;;;;;;3.13;2.30;;;;;;;;;;2076653;28;20045;-79
2021/05/24 03:07:39;;;;;;;3.17;2.30;;;;;;;;;;2076306;28;20076;-79
2021/05/24 03:08:41;;;;;;;3.95;2.33;;;;;;;;;;2076608;28;20057;-78
2021/05/24 03:09:42;;;;;;;3.05;2.60;;;;;;;;;;2076630;28;20050;-78
2021/05/24 03:10:44;;;;;;;2.63;2.40;;;;;;;;;;2084885;28;20321;-78
2021/05/24 03:11:46;;;;;;;3.33;2.17;;;;;;;;;;2077318;28;20049;-79
2021/05/24 03:12:47;;;;;;;3.53;2.65;;;;;;;;;;2078829;28;20052;-79
2021/05/24 03:13:50;;;;;;;4.15;2.47;;;;;;;;;;2073389;28;20050;-79
2021/05/24 03:14:51;;;;;;;2.65;2.30;;;;;;;;;;2069688;28;20038;-78
2021/05/24 03:15:53;;;;;;;3.20;2.30;;;;;;;;;;2077442;28;20046;-79
2021/05/24 03:16:55;;;;;;;3.95;2.22;;;;;;;;;;2068516;28;20061;-78
2021/05/24 03:17:56;;;;;;;3.85;2.17;;;;;;;;;;2061119;28;20050;-79
2021/05/24 03:18:58;;;;;;;2.95;2.10;;;;;;;;;;2069018;28;20042;-79
2021/05/24 03:19:59;;;;;;;1.92;1.80;;;;;;;;;;2068954;28;20542;-78
2021/05/24 03:21:01;;;;;;;4.75;1.98;;;;;;;;;;2076877;28;20203;-78
2021/05/24 03:22:03;;;;;;;3.63;2.00;;;;;;;;;;2077346;28;20364;-79
2021/05/24 03:23:05;;;;;;;2.75;2.20;;;;;;;;;;2077390;28;20117;-79
2021/05/24 03:24:07;;;;;;;2.50;1.90;;;;;;;;;;2077452;28;20046;-79
2021/05/24 03:25:09;;;;;;;3.65;2.22;;;;;;;;;;2069793;28;20034;-79
2021/05/24 03:26:11;;;;;;;4.35;2.15;;;;;;;;;;2069864;28;20046;-79
2021/05/24 03:27:12;;;;;;;3.35;2.35;;;;;;;;;;2069113;28;20043;-79
2021/05/24 03:28:14;;;;;;;2.63;2.28;;;;;;;;;;2069174;28;20038;-79
2021/05/24 03:29:16;;;;;;;2.45;2.25;;;;;;;;;;2068593;28;20038;-79
2021/05/24 03:30:18;;;;;;;2.42;1.90;;;;;;;;;;2060663;28;20042;-79
2021/05/24 03:31:20;;;;;;;6.18;2.53;;;;;;;;;;2060536;28;20443;-79
2021/05/24 03:32:21;;;;;;;3.20;2.28;;;;;;;;;;2068587;28;20069;-79
2021/05/24 03:33:23;;;;;;;3.38;2.35;;;;;;;;;;2083725;28;20290;-78
2021/05/24 03:34:25;;;;;;;3.33;2.20;;;;;;;;;;2085236;28;20052;-78
2021/05/24 03:35:26;;;;;;;5.57;2.20;;;;;;;;;;2076328;28;20046;-79
2021/05/24 03:36:28;;;;;;;2.70;2.20;;;;;;;;;;2069494;28;20065;-77
2021/05/24 03:37:29;;;;;;;2.88;2.30;;;;;;;;;;2076375;28;20093;-78
2021/05/24 03:38:33;;;;;;;3.10;2.78;;;;;;;;;;2083956;28;20045;-79
2021/05/24 03:39:34;;;;;;;2.90;2.33;;;;;;;;;;2076079;28;20038;-78
2021/05/24 03:40:36;;;;;;;3.72;2.80;;;;;;;;;;2075785;28;20045;-78
2021/05/24 03:41:38;;;;;;;4.53;3.15;;;;;;;;;;2075551;28;20419;-79
2021/05/24 03:42:39;;;;;;;6.85;3.38;;;;;;;;;;2076958;28;20053;-79
2021/05/24 03:43:47;;;;;;;4.32;3.15;;;;;;;;;;2076125;28;20046;-77
2021/05/24 03:44:48;;;;;;;3.63;2.90;;;;;;;;;;2066083;28;20053;-80
2021/05/24 03:45:50;;;;;;;4.45;3.13;;;;;;;;;;2069170;28;20113;-78
2021/05/24 03:46:52;;;;;;;4.00;2.90;;;;;;;;;;2078490;28;20045;-79
2021/05/24 03:47:54;;;;;;;4.03;3.00;;;;;;;;;;2073256;28;20050;-80
2021/05/24 03:48:55;;;;;;;4.15;3.45;;;;;;;;;;2062577;28;20427;-79
2021/05/24 03:49:57;;;;;;;4.05;3.40;;;;;;;;;;2064579;28;20078;-80
2021/05/24 03:50:58;;;;;;;4.13;3.15;;;;;;;;;;2076587;28;20061;-80
2021/05/24 03:52:00;;;;;;;6.15;3.60;;;;;;;;;;2075836;28;20034;-81
2021/05/24 03:53:02;;;;;;;4.97;3.67;;;;;;;;;;2071780;28;20042;-79
2021/05/24 03:54:03;;;;;;;7.95;3.70;;;;;;;;;;2059508;28;20444;-80
2021/05/24 03:55:06;;;;;;;3.75;3.40;;;;;;;;;;2068353;28;20264;-78
2021/05/24 03:56:08;;;;;;;4.95;3.47;;;;;;;;;;2068305;28;20103;-79
2021/05/24 03:57:11;;;;;;;5.70;3.80;;;;;;;;;;2064450;28;20047;-79
2021/05/24 03:58:13;;;;;;;4.20;3.28;;;;;;;;;;2068008;28;20049;-80
2021/05/24 03:59:14;;;;;;;5.30;3.60;;;;;;;;;;2068058;28;20482;-80
2021/05/24 04:00:17;;;;;;;8.90;3.70;;;;;;;;;;2075950;28;20502;-81
2021/05/24 04:01:19;;;;;;;5.55;3.08;;;;;;;;;;2076695;28;20113;-79
2021/05/24 04:02:20;;;;;;;4.82;3.35;;;;;;;;;;2067588;28;20050;-80
2021/05/24 04:03:22;;;;;;;6.60;3.60;;;;;;;;;;2068558;28;20465;-80
2021/05/24 04:04:24;;;;;;;4.32;2.92;;;;;;;;;;2079602;28;20053;-80
2021/05/24 04:05:32;;;;;;;4.93;3.03;;;;;;;;;;2068998;28;20050;-79
2021/05/24 04:06:34;;;;;;;4.88;3.35;;;;;;;;;;2062365;28;20082;-80
2021/05/24 04:07:36;;;;;;;4.38;3.42;;;;;;;;;;2065984;28;20392;-79
2021/05/24 04:08:42;;;;;;;5.25;3.72;;;;;;;;;;2074573;28;20049;-79
2021/05/24 04:09:44;;;;;;;6.65;3.33;;;;;;;;;;2083284;28;20045;-80
2021/05/24 04:10:57;;;;;;;4.55;3.53;;;;;;;;;;2072387;28;20077;-80
2021/05/24 04:11:59;;;;;;;7.35;3.40;;;;;;;;;;2076451;28;20030;-80
2021/05/24 04:13:01;;;;;;;4.13;3.35;;;;;;;;;;2082500;28;20038;-80
2021/05/24 04:14:03;;;;;;;5.85;3.00;;;;;;;;;;2075276;28;20235;-80
2021/05/24 04:15:05;;;;;;;2.90;2.50;;;;;;;;;;2074593;28;20045;-80
2021/05/24 04:16:07;;;;;;;4.43;2.60;;;;;;;;;;2075668;28;20050;-79
2021/05/24 04:17:12;;;;;;;2.55;2.33;;;;;;;;;;2065901;28;20419;-80
2021/05/24 04:18:16;;;;;;;3.78;2.42;;;;;;;;;;2060417;28;20042;-80
2021/05/24 04:19:18;;;;;;;3.05;2.60;;;;;;;;;;2066529;28;20046;-80
2021/05/24 04:20:19;;;;;;;4.03;2.50;;;;;;;;;;2066678;28;20054;-80
2021/05/24 04:21:21;;;;;;;3.30;2.25;;;;;;;;;;2058561;28;20054;-80
2021/05/24 04:22:23;;;;;;;3.95;2.40;;;;;;;;;;2066809;28;20058;-79
2021/05/24 04:23:27;;;;;;;3.55;2.38;;;;;;;;;;2081263;28;20045;-80
2021/05/24 04:24:28;;;;;;;8.25;2.33;;;;;;;;;;2066227;28;20050;-79
2021/05/24 04:25:30;;;;;;;2.90;2.50;;;;;;;;;;2073676;28;20049;-80
2021/05/24 04:26:32;;;;;;;3.22;2.13;;;;;;;;;;2072221;28;20038;-80
2021/05/24 04:27:33;;;;;;;2.58;2.38;;;;;;;;;;2067563;28;20046;-80
2021/05/24 04:28:36;;;;;;;2.92;2.17;;;;;;;;;;2074077;28;20056;-80
2021/05/24 04:29:38;;;;;;;3.55;2.40;;;;;;;;;;2069545;28;20339;-79
2021/05/24 04:30:41;;;;;;;3.05;2.13;;;;;;;;;;2074751;28;20049;-80
2021/05/24 04:31:42;;;;;;;4.72;2.63;;;;;;;;;;2072403;28;20034;-79
2021/05/24 04:32:44;;;;;;;3.72;2.33;;;;;;;;;;2074306;28;20065;-80
2021/05/24 04:33:45;;;;;;;2.40;2.20;;;;;;;;;;2068406;28;20038;-81
2021/05/24 04:34:47;;;;;;;3.20;2.60;;;;;;;;;;2067429;28;20050;-80
2021/05/24 04:35:52;;;;;;;4.18;2.25;;;;;;;;;;2058671;28;20463;-80
2021/05/24 04:36:54;;;;;;;5.20;2.70;;;;;;;;;;2059830;28;20047;-79
2021/05/24 04:37:56;;;;;;;2.42;2.22;;;;;;;;;;2066912;28;20042;-80
2021/05/24 04:38:57;;;;;;;4.25;2.75;;;;;;;;;;2067747;28;20035;-80
2021/05/24 04:39:59;;;;;;;3.75;3.30;;;;;;;;;;2066802;28;20043;-80
2021/05/24 04:41:00;;;;;;;5.30;2.95;;;;;;;;;;2058633;28;20043;-80
2021/05/24 04:42:05;;;;;;;3.75;3.20;;;;;;;;;;2059192;28;20516;-79
2021/05/24 04:43:07;;;;;;;4.18;2.60;;;;;;;;;;2066873;28;20427;-80
2021/05/24 04:44:12;;;;;;;3.80;3.20;;;;;;;;;;2067102;28;20059;-80
2021/05/24 04:45:14;;;;;;;3.28;2.65;;;;;;;;;;2067957;28;20042;-80
2021/05/24 04:46:15;;;;;;;2.97;2.50;;;;;;;;;;2069782;28;20046;-80
2021/05/24 04:47:18;;;;;;;4.60;2.55;;;;;;;;;;2075069;28;20038;-79
2021/05/24 04:48:19;;;;;;;4.18;2.70;;;;;;;;;;2066822;28;20061;-80
2021/05/24 04:49:21;;;;;;;3.78;2.60;;;;;;;;;;2074979;28;20076;-80
2021/05/24 04:50:22;;;;;;;2.72;2.35;;;;;;;;;;2082636;28;20057;-80
2021/05/24 04:51:24;;;;;;;4.30;2.63;;;;;;;;;;2067093;28;20053;-80
2021/05/24 04:52:26;;;;;;;2.80;2.50;;;;;;;;;;2075392;28;20042;-80
2021/05/24 04:53:27;;;;;;;5.00;2.70;;;;;;;;;;2082520;28;20049;-80
2021/05/24 04:54:29;;;;;;;3.85;2.97;;;;;;;;;;2083548;28;20502;-79
2021/05/24 04:55:31;;;;;;;2.90;2.20;;;;;;;;;;2082520;28;20056;-80
2021/05/24 04:56:34;;;;;;;3.70;2.20;;;;;;;;;;2083283;28;20042;-80
2021/05/24 04:57:35;;;;;;;2.95;2.60;;;;;;;;;;2076590;28;20053;-80
2021/05/24 04:58:37;;;;;;;2.85;2.40;;;;;;;;;;2083088;28;20505;-80
2021/05/24 04:59:39;;;;;;;3.50;3.10;;;;;;;;;;2066627;28;20046;-80
2021/05/24 05:00:41;;;;;;;3.25;2.67;;;;;;;;;;2066512;28;20515;-79
2021/05/24 05:01:43;;;;;;;3.55;2.90;;;;;;;;;;2069997;28;20035;-80
2021/05/24 05:02:44;;;;;;;3.13;2.53;;;;;;;;;;2058926;28;20046;-80
2021/05/24 05:03:46;;;;;;;2.97;2.35;;;;;;;;;;2074337;28;20041;-80
2021/05/24 05:04:47;;;;;;;4.57;2.60;;;;;;;;;;2074931;28;20239;-80
2021/05/24 05:05:49;;;;;;;3.38;2.58;;;;;;;;;;2059113;28;20053;-80
2021/05/24 05:06:51;;;;;;;4.47;2.90;;;;;;;;;;2067108;28;20045;-80
2021/05/24 05:07:53;;;;;;;3.70;3.00;;;;;;;;;;2062369;28;20047;-80
2021/05/24 05:08:54;;;;;;;2.92;2.40;;;;;;;;;;2059285;28;20049;-79
2021/05/24 05:09:56;;;;;;;3.40;2.63;;;;;;;;;;2074714;28;20049;-80
2021/05/24 05:10:57;;;;;;;4.65;2.67;;;;;;;;;;2075392;28;20045;-80
2021/05/24 05:11:59;;;;;;;2.92;2.58;;;;;;;;;;2067274;28;20097;-80
2021/05/24 05:13:01;;;;;;;3.90;2.70;;;;;;;;;;2075923;28;20042;-81
2021/05/24 05:14:03;;;;;;;4.38;2.72;;;;;;;;;;2075666;28;20038;-82
2021/05/24 05:15:07;;;;;;;3.30;2.70;;;;;;;;;;2075334;28;20041;-80
2021/05/24 05:16:10;;;;;;;3.45;2.67;;;;;;;;;;2073930;28;20442;-80
2021/05/24 05:17:12;;;;;;;3.30;2.40;;;;;;;;;;2067353;28;20045;-80
2021/05/24 05:18:13;;;;;;;3.10;2.30;;;;;;;;;;2059021;28;20042;-79
2021/05/24 05:19:16;;;;;;;2.92;2.63;;;;;;;;;;2067455;28;20046;-79
2021/05/24 05:20:18;;;;;;;3.13;2.53;;;;;;;;;;2066506;28;20046;-80
2021/05/24 05:21:19;;;;;;;4.95;2.80;;;;;;;;;;2067155;28;20050;-79
2021/05/24 05:22:21;;;;;;;4.68;3.00;;;;;;;;;;2075117;28;20130;-81
2021/05/24 05:23:23;;;;;;;3.85;2.97;;;;;;;;;;2074205;28;20045;-80
2021/05/24 05:24:24;;;;;;;4.68;3.17;;;;;;;;;;2075099;28;20056;-81
2021/05/24 05:25:26;;;;;;;2.67;2.30;;;;;;;;;;2075210;28;20154;-80
2021/05/24 05:26:28;;;;;;;2.47;2.22;;;;;;;;;;2083208;28;20041;-80
2021/05/24 05:27:30;;;;;;;2.42;1.90;;;;;;;;;;2074818;28;20050;-80
2021/05/24 05:28:32;;;;;;;3.15;2.47;;;;;;;;;;2074702;28;20046;-81
2021/05/24 05:29:34;;;;;;;2.88;2.10;;;;;;;;;;2073918;28;20041;-80
2021/05/24 05:30:35;;;;;;;3.08;2.13;;;;;;;;;;2072479;28;20049;-80
2021/05/24 05:31:37;;;;;;;3.17;2.17;;;;;;;;;;2075148;28;20042;-79
2021/05/24 05:32:38;;;;;;;3.03;2.20;;;;;;;;;;2081912;28;20076;-80
2021/05/24 05:33:40;;;;;;;3.38;2.17;;;;;;;;;;2081887;28;20437;-80
2021/05/24 05:34:41;;;;;;;4.07;2.35;;;;;;;;;;2074438;28;20045;-80
2021/05/24 05:35:55;;;;;;;2.63;2.10;;;;;;;;;;2074285;28;20049;-80
2021/05/24 05:36:57;;;;;;;3.97;2.63;;;;;;;;;;2081883;28;20041;-79
2021/05/24 05:37:58;;;;;;;2.20;2.00;;;;;;;;;;2075578;28;20056;-79
2021/05/24 05:39:00;;;;;;;2.33;2.08;;;;;;;;;;2065486;28;20073;-80
2021/05/24 05:40:03;;;;;;;3.35;1.98;;;;;;;;;;2073474;28;20049;-79
2021/05/24 05:41:05;;;;;;;3.63;2.35;;;;;;;;;;2074567;28;20466;-79
2021/05/24 05:42:07;;;;;;;3.10;1.85;;;;;;;;;;2074607;28;20054;-79
2021/05/24 05:43:09;;;;;;;2.35;1.83;;;;;;;;;;2081878;28;20041;-78
2021/05/24 05:44:10;;;;;;;2.28;2.08;;;;;;;;;;2082331;28;20046;-80
2021/05/24 05:45:13;;;;;;;2.22;2.03;;;;;;;;;;2075758;28;20419;-78
2021/05/24 05:46:15;;;;;;;3.38;1.90;;;;;;;;;;2076975;28;20042;-80
2021/05/24 05:47:17;;;;;;;2.15;1.95;;;;;;;;;;2066496;28;20431;-80
2021/05/24 05:48:18;;;;;;;2.92;2.17;;;;;;;;;;2075231;28;20057;-80
2021/05/24 05:49:21;;;;;;;1.85;1.70;;;;;;;;;;2075724;28;20046;-80
2021/05/24 05:50:23;;;;;;;2.40;2.10;;;;;;;;;;2067246;28;20051;-79
2021/05/24 05:51:25;;;;;;;2.80;1.92;;;;;;;;;;2067876;28;20662;-80
2021/05/24 05:52:27;;;;;;;2.80;2.10;;;;;;;;;;2069793;28;20048;-80
2021/05/24 05:53:28;;;;;;;2.17;1.95;;;;;;;;;;2075985;28;20045;-80
2021/05/24 05:54:30;;;;;;;3.20;2.60;;;;;;;;;;2076985;28;20046;-79
2021/05/24 05:55:32;;;;;;;2.88;2.30;;;;;;;;;;2076683;28;20420;-78
2021/05/24 05:56:34;;;;;;;3.38;2.53;;;;;;;;;;2067307;28;20046;-79
2021/05/24 05:57:35;;;;;;;3.45;2.38;;;;;;;;;;2067491;28;20053;-78
2021/05/24 05:58:37;;;;;;;6.22;2.45;;;;;;;;;;2068226;28;20529;-79
2021/05/24 05:59:39;;;;;;;5.57;2.47;;;;;;;;;;2075025;28;20046;-79
2021/05/24 06:00:41;;;;;;;3.58;2.65;;;;;;;;;;2084441;28;20042;-79
2021/05/24 06:01:42;;;;;;;4.53;2.30;;;;;;;;;;2074877;28;20042;-80
2021/05/24 06:02:44;;;;;;;3.53;3.00;;;;;;;;;;2077167;28;20068;-81
2021/05/24 06:03:45;;;;;;;3.45;2.40;;;;;;;;;;2076860;28;20045;-80
2021/05/24 06:04:47;;;;;;;5.00;2.25;;;;;;;;;;2083446;28;20049;-80
2021/05/24 06:05:48;;;;;;;3.95;2.38;;;;;;;;;;2072325;28;20054;-79
2021/05/24 06:06:50;;;;;;;4.07;2.67;;;;;;;;;;2072402;28;20766;-80
2021/05/24 06:07:51;;;;;;;6.65;2.58;;;;;;;;;;2063906;28;20527;-80
2021/05/24 06:08:53;;;;;;;5.07;2.72;;;;;;;;;;2057128;28;20163;-80
2021/05/24 06:09:54;;;;;;;7.00;2.90;;;;;;;;;;2064064;28;20566;-79
2021/05/24 06:10:57;;;;;;;5.63;2.75;;;;;;;;;;2064712;28;20053;-79
2021/05/24 06:11:59;;;;;;;4.80;2.75;;;;;;;;;;2066687;28;20042;-79
2021/05/24 06:13:01;;;;;;;5.05;2.90;;;;;;;;;;2075229;28;20052;-79
2021/05/24 06:14:03;;;;;;;4.80;2.78;;;;;;;;;;2072224;28;20056;-79